EKSB/SGD METAR and TAF weather

Enter ICAO airport designator
Station Type Date Time Source
EKSB METAR 2020/12/05 06:20 UTC NOAA

EKSB 050620Z AUTO 10013KT 9000NDV FEW016/// BKN093/// 06/04 Q0996


Station Type Date Time Source
EKSB Decoded METAR 2020/12/05 06:20 UTC NOAA

Soenderborg Lufthavn, Denmark (EKSB) 54-58N 009-47E 14M
Dec 05, 2020 - 01:20 AM EST / 2020.12.05 0620 UTC
Wind: from the E (100 degrees) at 15 MPH (13 KT):0
Sky conditions: mostly cloudy
Temperature: 42 F (6 C)
Dew Point: 39 F (4 C)
Relative Humidity: 86%
Pressure (altimeter): 29.41 in. Hg (0996 hPa)
ob: EKSB 050620Z AUTO 10013KT 9000NDV FEW016/// BKN093/// 06/04 Q0996
cycle: 6

Station Type Date Time Source
EKSB TAF 2016/01/27 09:03 UTC NOAA

TAF TAF EKSB 270856Z 2709/2721 23022KT 5000 -RA BR BKN008
TEMPO 2709/2721 24025G40KT 2000 RADZ BKN004

Example: see airport list